Time;durP1;ratioP1;P1;durP2;ratioP2;P2;SDS_P1;SDS_P2;PMS_P1;PMS_P2;Temp;Humidity;BMP_temperature;BMP_pressure;BME280_temperature;BME280_humidity;BME280_pressure;Samples;Min_cycle;Max_cycle;Signal;HPM_P1;HPM_P2
2022/12/15 00:40:59;;;;;;;14.50;10.10;;;;;;;-2.63;69.38;100513.38;1738806;81;21022;-76
2022/12/15 00:43:30;;;;;;;13.75;10.60;;;;;;;-2.63;69.28;100500.45;1722106;82;20982;-74
2022/12/15 00:48:42;;;;;;;16.60;11.15;;;;;;;-2.60;69.22;100502.98;1739592;80;21066;-75
2022/12/15 00:51:09;;;;;;;14.73;10.72;;;;;;;-2.57;69.11;100494.30;1728475;80;21040;-75
2022/12/15 01:21:23;;;;;;;12.40;9.10;;;;;;;-2.41;68.72;100447.79;1733685;80;21043;-77
2022/12/15 01:23:50;;;;;;;12.70;9.65;;;;;;;-2.41;68.66;100444.76;1742049;80;21079;-76
2022/12/15 01:26:19;;;;;;;13.00;9.78;;;;;;;-2.41;68.63;100438.73;1735608;82;21917;-76
2022/12/15 01:28:45;;;;;;;14.95;10.00;;;;;;;-2.40;68.68;100436.55;1696588;83;21008;-76
2022/12/15 01:31:12;;;;;;;14.80;10.45;;;;;;;-2.39;68.70;100424.02;1729677;80;21013;-76
2022/12/15 01:33:41;;;;;;;15.60;10.88;;;;;;;-2.38;68.75;100429.16;1703302;82;21021;-76
2022/12/15 01:36:09;;;;;;;13.20;9.45;;;;;;;-2.37;68.72;100427.41;1728853;81;21036;-75
2022/12/15 01:38:36;;;;;;;16.25;10.90;;;;;;;-2.38;68.73;100433.48;1725638;81;22542;-75
2022/12/15 01:41:06;;;;;;;14.90;10.72;;;;;;;-2.38;68.74;100427.86;1724530;81;21087;-75
2022/12/15 01:43:36;;;;;;;14.78;11.03;;;;;;;-2.38;68.68;100425.72;1718117;81;22075;-76
2022/12/15 01:46:20;;;;;;;13.65;10.00;;;;;;;-2.38;68.65;100412.34;1723998;82;21083;-75
2022/12/15 01:49:01;;;;;;;14.05;10.30;;;;;;;-2.35;68.68;100407.52;1725329;82;21306;-75
2022/12/15 01:51:38;;;;;;;14.20;10.70;;;;;;;-2.35;68.59;100403.20;1689145;84;22524;-75
2022/12/15 01:54:16;;;;;;;16.20;10.38;;;;;;;-2.32;68.55;100407.43;1691040;83;21009;-75
2022/12/15 01:56:45;;;;;;;14.75;10.15;;;;;;;-2.31;68.42;100409.16;1721006;81;21545;-75
2022/12/15 01:59:16;;;;;;;17.12;12.07;;;;;;;-2.29;68.37;100415.58;1724599;82;20984;-74
2022/12/15 02:01:43;;;;;;;16.80;11.43;;;;;;;-2.28;68.28;100406.92;1729824;81;21126;-74
2022/12/15 02:04:11;;;;;;;20.25;12.60;;;;;;;-2.26;68.24;100414.20;1723046;81;22258;-76
2022/12/15 02:06:37;;;;;;;16.87;12.58;;;;;;;-2.25;68.20;100415.89;1727983;81;21068;-75
2022/12/15 02:09:04;;;;;;;18.65;13.03;;;;;;;-2.23;68.18;100420.58;1722075;81;21088;-75
2022/12/15 02:11:44;;;;;;;17.07;12.95;;;;;;;-2.22;68.13;100417.97;1727294;81;21063;-75
2022/12/15 02:14:26;;;;;;;16.52;12.47;;;;;;;-2.22;68.10;100423.15;1722067;81;21464;-76
2022/12/15 02:17:26;;;;;;;18.48;11.75;;;;;;;-2.21;68.08;100414.50;1731796;81;21984;-76
2022/12/15 02:20:18;;;;;;;14.55;10.70;;;;;;;-2.18;68.03;100409.67;1697230;82;21017;-75
2022/12/15 02:23:19;;;;;;;15.05;10.35;;;;;;;-2.19;67.97;100409.27;1683180;82;21549;-77
2022/12/15 02:26:32;;;;;;;16.15;10.45;;;;;;;-2.19;67.89;100411.86;1730887;81;20989;-75
2022/12/15 02:29:29;;;;;;;14.20;10.53;;;;;;;-2.17;67.93;100401.02;1723589;81;20950;-75
2022/12/15 02:32:10;;;;;;;14.75;10.32;;;;;;;-2.16;67.87;100390.63;1721871;81;21978;-75
2022/12/15 02:35:05;;;;;;;13.40;9.98;;;;;;;-2.18;67.68;100385.94;1715670;81;20991;-75
2022/12/15 02:37:34;;;;;;;12.40;9.35;;;;;;;-2.18;67.65;100384.64;1726595;81;20945;-76
2022/12/15 02:40:01;;;;;;;13.32;9.50;;;;;;;-2.18;67.49;100378.18;1725638;82;21025;-75
2022/12/15 02:42:28;;;;;;;12.80;9.15;;;;;;;-2.17;67.37;100369.97;1723152;81;21002;-75
2022/12/15 02:45:04;;;;;;;13.00;8.87;;;;;;;-2.16;67.36;100371.22;1727687;81;21925;-74
2022/12/15 02:47:46;;;;;;;13.45;8.68;;;;;;;-2.14;67.21;100362.96;1727553;81;20946;-76
2022/12/15 02:50:25;;;;;;;13.98;9.68;;;;;;;-2.12;67.12;100358.62;1723130;81;21127;-76
2022/12/15 02:53:12;;;;;;;14.25;9.38;;;;;;;-2.10;67.07;100352.95;1725961;81;21095;-75
2022/12/15 02:55:47;;;;;;;14.28;9.65;;;;;;;-2.08;66.96;100358.08;1724614;81;21132;-74
2022/12/15 02:58:28;;;;;;;13.60;9.58;;;;;;;-2.08;66.96;100366.69;1724402;82;22006;-75
2022/12/15 03:01:11;;;;;;;14.05;8.83;;;;;;;-2.06;66.91;100362.75;1727020;82;21088;-73
2022/12/15 03:03:37;;;;;;;11.00;8.48;;;;;;;-2.04;66.93;100380.38;1719830;81;21061;-74
2022/12/15 03:06:05;;;;;;;11.85;8.63;;;;;;;-2.03;66.93;100377.77;1723267;81;21028;-75
2022/12/15 03:08:32;;;;;;;12.33;8.35;;;;;;;-2.02;66.95;100374.29;1732421;82;21001;-74
2022/12/15 03:10:58;;;;;;;11.35;7.95;;;;;;;-1.99;67.00;100375.09;1696257;82;21816;-73
2022/12/15 03:13:25;;;;;;;10.88;7.60;;;;;;;-1.98;67.06;100375.04;1726794;82;21005;-73
2022/12/15 03:15:53;;;;;;;12.07;9.05;;;;;;;-1.95;67.07;100374.94;1724615;81;21067;-73
2022/12/15 03:18:20;;;;;;;10.23;7.85;;;;;;;-1.92;67.17;100377.92;1732143;81;21495;-74
2022/12/15 03:20:48;;;;;;;10.60;7.65;;;;;;;-1.92;67.26;100376.17;1724757;81;22131;-74
2022/12/15 03:23:15;;;;;;;10.45;8.10;;;;;;;-1.89;67.31;100373.94;1725032;81;21880;-74
2022/12/15 03:25:45;;;;;;;10.82;7.62;;;;;;;-1.87;67.35;100373.44;1725845;81;21058;-74
2022/12/15 03:28:11;;;;;;;10.60;7.80;;;;;;;-1.86;67.40;100383.75;1723357;81;21494;-73
2022/12/15 03:30:37;;;;;;;11.00;8.03;;;;;;;-1.85;67.41;100378.97;1724711;81;21498;-74
2022/12/15 03:33:04;;;;;;;9.40;6.85;;;;;;;-1.83;67.46;100375.06;1722762;82;21531;-74
2022/12/15 03:35:32;;;;;;;11.28;7.85;;;;;;;-1.82;67.52;100381.49;1725999;82;22545;-74
2022/12/15 03:37:59;;;;;;;11.50;7.90;;;;;;;-1.79;67.57;100379.25;1736311;80;20981;-76
2022/12/15 03:40:25;;;;;;;9.73;7.30;;;;;;;-1.78;67.64;100367.55;1706276;82;21541;-73
2022/12/15 03:42:52;;;;;;;14.95;8.60;;;;;;;-1.75;67.72;100363.56;1674975;84;21431;-74
2022/12/15 03:45:23;;;;;;;18.17;12.03;;;;;;;-1.72;67.74;100353.59;1675276;83;21055;-75
2022/12/15 03:47:50;;;;;;;14.53;9.85;;;;;;;-1.70;67.80;100345.77;1731354;80;22634;-77
2022/12/15 03:50:19;;;;;;;11.63;8.15;;;;;;;-1.69;67.85;100343.13;1736566;80;21435;-74
2022/12/15 03:52:52;;;;;;;10.35;7.22;;;;;;;-1.68;67.85;100341.39;1735812;80;21040;-74
2022/12/15 03:55:20;;;;;;;9.83;7.20;;;;;;;-1.67;67.82;100331.43;1733248;80;21005;-74
2022/12/15 03:57:47;;;;;;;12.85;10.32;;;;;;;-1.65;67.85;100327.05;1731135;80;21072;-74
2022/12/15 04:00:14;;;;;;;10.03;8.88;;;;;;;-1.64;67.89;100330.03;1734104;80;21924;-73
2022/12/15 04:02:42;;;;;;;10.48;8.13;;;;;;;-1.60;67.96;100323.44;1733727;80;21526;-75
2022/12/15 04:05:25;;;;;;;11.78;8.13;;;;;;;-1.59;67.95;100317.81;1729235;80;21107;-74
2022/12/15 04:07:53;;;;;;;10.60;7.47;;;;;;;-1.58;68.00;100304.81;1731636;80;21017;-74
2022/12/15 04:10:21;;;;;;;10.70;7.80;;;;;;;-1.56;68.01;100307.34;1732084;80;20989;-75
2022/12/15 04:12:49;;;;;;;9.95;7.40;;;;;;;-1.56;67.94;100313.82;1730348;80;22601;-75
2022/12/15 04:15:16;;;;;;;12.23;8.50;;;;;;;-1.56;67.99;100307.34;1713978;80;21601;-74
2022/12/15 04:17:44;;;;;;;12.68;8.05;;;;;;;-1.57;67.98;100318.61;1732423;81;21232;-74
2022/12/15 04:20:11;;;;;;;10.85;8.28;;;;;;;-1.56;68.09;100318.55;1729400;80;21042;-74
2022/12/15 04:22:41;;;;;;;12.10;8.90;;;;;;;-1.56;68.12;100319.00;1729968;80;21124;-73
2022/12/15 05:34:08;;;;;;;16.45;12.13;;;;;;;-1.66;74.27;100267.94;1727846;80;23165;-74
2022/12/15 05:36:34;;;;;;;14.20;10.80;;;;;;;-1.65;74.43;100261.02;1690402;80;21145;-78
2022/12/15 05:39:01;;;;;;;16.17;11.08;;;;;;;-1.65;74.52;100251.95;1731489;80;21067;-75
2022/12/15 05:41:28;;;;;;;16.37;10.82;;;;;;;-1.64;74.59;100251.93;1731219;80;21040;-75
2022/12/15 05:43:54;;;;;;;14.85;11.10;;;;;;;-1.62;74.73;100244.11;1724495;81;21041;-74
2022/12/15 05:46:21;;;;;;;15.53;11.08;;;;;;;-1.63;74.90;100248.44;1709674;82;21852;-74
2022/12/15 05:48:47;;;;;;;16.90;11.20;;;;;;;-1.62;74.99;100255.31;1735652;80;21032;-75
2022/12/15 05:51:15;;;;;;;17.82;11.70;;;;;;;-1.62;75.16;100254.02;1732645;80;21037;-74
2022/12/15 05:53:41;;;;;;;16.20;10.98;;;;;;;-1.61;75.19;100241.91;1730895;80;21072;-74
2022/12/15 05:56:10;;;;;;;16.93;10.80;;;;;;;-1.60;75.32;100247.48;1690832;83;21005;-74
2022/12/15 05:58:38;;;;;;;19.27;10.85;;;;;;;-1.58;75.43;100240.51;1733210;80;21951;-74
2022/12/15 06:01:13;;;;;;;19.60;11.70;;;;;;;-1.58;75.46;100243.95;1704417;82;21117;-73
2022/12/15 06:03:39;;;;;;;24.40;13.00;;;;;;;-1.56;75.77;100238.71;1704330;82;21064;-76
2022/12/15 06:06:09;;;;;;;16.67;10.78;;;;;;;-1.54;75.92;100232.61;1715751;81;21017;-71
2022/12/15 06:08:39;;;;;;;19.10;11.22;;;;;;;-1.52;76.03;100245.06;1733314;80;21099;-74
2022/12/15 06:11:06;;;;;;;17.90;10.00;;;;;;;-1.49;76.03;100236.33;1727264;80;21845;-75
2022/12/15 06:13:33;;;;;;;16.57;11.22;;;;;;;-1.48;75.88;100228.51;1731550;80;20989;-80
2022/12/15 06:16:02;;;;;;;16.82;11.73;;;;;;;-1.45;75.80;100228.85;1731741;80;20934;-76
2022/12/15 06:18:35;;;;;;;17.67;11.00;;;;;;;-1.43;75.81;100228.83;1731886;80;21594;-76
2022/12/15 06:21:14;;;;;;;18.40;11.25;;;;;;;-1.39;75.75;100229.95;1738864;82;21062;-81
2022/12/15 06:23:56;;;;;;;17.50;10.28;;;;;;;-1.37;75.62;100229.45;1728344;80;22707;-81
2022/12/15 06:26:39;;;;;;;18.62;10.35;;;;;;;-1.36;75.46;100226.41;1705936;84;20993;-82
2022/12/15 06:29:14;;;;;;;16.10;11.85;;;;;;;-1.35;75.37;100231.56;1673374;83;35061;-81
2022/12/15 06:31:41;;;;;;;13.80;10.03;;;;;;;-1.30;75.20;100202.45;1729074;80;21024;-80
2022/12/15 06:34:12;;;;;;;13.32;9.00;;;;;;;-1.23;75.09;100201.80;1742252;80;20998;-79
2022/12/15 06:36:39;;;;;;;12.75;9.10;;;;;;;-1.23;74.98;100205.24;1731900;80;22071;-81
2022/12/15 06:39:08;;;;;;;15.05;9.13;;;;;;;-1.22;74.91;100208.23;1748512;81;21053;-80
2022/12/15 06:41:35;;;;;;;12.33;8.68;;;;;;;-1.22;74.87;100199.16;1743633;81;21015;-83
2022/12/15 06:44:02;;;;;;;15.45;10.32;;;;;;;-1.24;74.75;100206.14;1742850;81;21029;-81
2022/12/15 06:46:31;;;;;;;14.98;10.80;;;;;;;-1.24;74.77;100204.84;1750287;81;20960;-82
2022/12/15 06:48:57;;;;;;;11.53;8.90;;;;;;;-1.25;74.79;100197.98;1745655;80;21830;-83
2022/12/15 06:51:25;;;;;;;12.20;8.65;;;;;;;-1.25;74.74;100203.16;1747379;80;21021;-81
2022/12/15 06:53:52;;;;;;;12.37;9.05;;;;;;;-1.23;74.74;100197.47;1746837;81;21016;-83
2022/12/15 06:56:28;;;;;;;12.53;8.75;;;;;;;-1.23;74.77;100201.80;1750679;82;20969;-76
2022/12/15 06:58:54;;;;;;;12.98;8.55;;;;;;;-1.23;74.78;100205.24;1716465;82;21620;-76
2022/12/15 07:01:23;;;;;;;11.28;8.33;;;;;;;-1.22;74.79;100206.93;1729779;81;21439;-81
2022/12/15 07:03:51;;;;;;;14.47;8.98;;;;;;;-1.21;74.86;100200.00;1746693;81;22314;-80
2022/12/15 07:06:18;;;;;;;13.13;8.55;;;;;;;-1.21;74.91;100203.89;1696127;80;21071;-83
2022/12/15 07:08:57;;;;;;;11.75;9.10;;;;;;;-1.20;74.92;100206.42;1750022;80;20932;-81
2022/12/15 07:11:35;;;;;;;11.70;8.20;;;;;;;-1.18;74.94;100208.95;1718599;81;21316;-78
2022/12/15 07:14:18;;;;;;;12.47;9.35;;;;;;;-1.17;75.19;100208.90;1744968;80;21951;-84
2022/12/15 07:17:02;;;;;;;11.78;8.70;;;;;;;-1.17;75.50;100210.20;1743644;81;21063;-82
2022/12/15 07:19:29;;;;;;;11.57;8.05;;;;;;;-1.16;75.59;100196.37;1748041;81;20872;-79
2022/12/15 07:21:56;;;;;;;11.70;8.78;;;;;;;-1.14;75.57;100201.95;1696066;81;21139;-80
2022/12/15 07:24:23;;;;;;;9.93;7.65;;;;;;;-1.14;75.43;100200.20;1742883;82;20997;-79
2022/12/15 07:26:50;;;;;;;11.60;8.60;;;;;;;-1.14;75.35;100191.58;1744233;80;21942;-83
2022/12/15 07:29:16;;;;;;;10.55;8.70;;;;;;;-1.14;75.25;100184.65;1715825;80;21063;-79
2022/12/15 07:31:43;;;;;;;11.97;8.93;;;;;;;-1.12;75.22;100176.81;1689992;82;21063;-82
2022/12/15 07:34:10;;;;;;;12.30;8.55;;;;;;;-1.12;75.15;100178.95;1745799;80;20997;-83
2022/12/15 07:36:37;;;;;;;12.60;8.68;;;;;;;-1.10;75.16;100174.56;1739274;80;21001;-84
2022/12/15 07:39:04;;;;;;;13.18;8.33;;;;;;;-1.09;75.11;100174.95;1744411;80;21769;-83
2022/12/15 07:41:33;;;;;;;15.75;9.40;;;;;;;-1.05;75.14;100167.94;1763962;80;21480;-84
2022/12/15 07:44:03;;;;;;;11.43;8.40;;;;;;;-1.02;75.08;100171.25;1741303;81;20984;-82
2022/12/15 07:46:33;;;;;;;16.23;9.25;;;;;;;-1.01;74.96;100179.42;1740103;81;21135;-83
2022/12/15 07:49:00;;;;;;;12.10;9.43;;;;;;;-1.01;74.89;100177.28;1739710;81;21004;-79
2022/12/15 07:51:26;;;;;;;10.63;8.38;;;;;;;-0.98;74.91;100171.98;1741387;81;21907;-86
2022/12/15 07:53:53;;;;;;;10.23;8.23;;;;;;;-0.95;74.93;100168.01;1739319;81;20967;-84
2022/12/15 07:56:20;;;;;;;9.83;8.05;;;;;;;-0.94;74.87;100156.28;1741956;82;21254;-82
2022/12/15 07:58:46;;;;;;;10.35;8.18;;;;;;;-0.90;74.87;100167.38;1742423;82;21490;-81
2022/12/15 08:01:13;;;;;;;12.20;8.50;;;;;;;-0.87;74.75;100160.36;1732611;81;21119;-84
2022/12/15 08:03:40;;;;;;;10.60;8.25;;;;;;;-0.85;74.72;100155.11;1733057;81;21937;-81
2022/12/15 08:06:10;;;;;;;13.43;8.63;;;;;;;-0.83;74.70;100148.11;1689183;81;21001;-80
2022/12/15 08:08:38;;;;;;;11.90;8.23;;;;;;;-0.81;74.62;100151.94;1738534;81;21013;-80
2022/12/15 08:11:06;;;;;;;18.80;14.20;;;;;;;-0.79;74.61;100146.24;1729801;81;21080;-81
2022/12/15 08:13:34;;;;;;;13.62;9.20;;;;;;;-0.79;74.61;100138.02;1730017;81;21032;-74
2022/12/15 08:16:01;;;;;;;10.38;8.20;;;;;;;-0.76;74.66;100139.22;1734820;81;21850;-74
2022/12/15 08:18:28;;;;;;;14.65;8.90;;;;;;;-0.75;74.69;100134.42;1733269;80;21001;-79
2022/12/15 08:20:55;;;;;;;14.35;9.10;;;;;;;-0.75;74.82;100132.28;1722950;80;21044;-78
2022/12/15 08:23:21;;;;;;;17.00;10.90;;;;;;;-0.73;74.96;100124.83;1727067;80;21006;-80
2022/12/15 08:25:49;;;;;;;22.27;11.43;;;;;;;-0.73;75.22;100119.64;1730617;80;21483;-80
2022/12/15 08:28:16;;;;;;;31.45;11.70;;;;;;;-0.70;75.51;100121.27;1735886;80;21860;-77
2022/12/15 08:30:43;;;;;;;19.85;11.33;;;;;;;-0.70;75.71;100110.44;1740579;80;20895;-79
2022/12/15 08:33:10;;;;;;;28.83;13.43;;;;;;;-0.68;75.85;100113.81;1731185;80;21079;-78
2022/12/15 08:35:39;;;;;;;28.20;14.30;;;;;;;-0.66;75.97;100106.84;1734035;80;21025;-79
2022/12/15 08:38:05;;;;;;;77.97;20.37;;;;;;;-0.61;76.04;100102.77;1738018;80;21115;-78
2022/12/15 08:40:32;;;;;;;77.37;20.37;;;;;;;-0.58;76.09;100098.75;1742414;80;21938;-77
2022/12/15 08:42:58;;;;;;;38.58;16.20;;;;;;;-0.53;76.15;100102.48;1745374;80;22394;-78
2022/12/15 08:45:25;;;;;;;105.87;22.67;;;;;;;-0.51;76.14;100100.22;1742805;80;21080;-78
2022/12/15 08:47:51;;;;;;;31.25;14.68;;;;;;;-0.50;76.19;100095.88;1738297;80;21016;-76
2022/12/15 08:50:19;;;;;;;31.17;14.75;;;;;;;-0.46;76.24;100089.68;1739181;80;21043;-77
2022/12/15 08:52:45;;;;;;;40.43;15.50;;;;;;;-0.47;76.29;100089.29;1746522;80;21975;-77
2022/12/15 08:55:12;;;;;;;73.40;17.75;;;;;;;-0.46;76.41;100093.57;1713905;82;21079;-76
2022/12/15 08:57:40;;;;;;;55.52;29.55;;;;;;;-0.45;76.57;100096.55;1740420;80;21437;-77
2022/12/15 09:00:09;;;;;;;36.70;20.97;;;;;;;-0.43;76.62;100090.84;1712950;82;21037;-78
2022/12/15 09:02:36;;;;;;;53.00;28.50;;;;;;;-0.41;76.69;100100.25;1743671;80;21083;-79
2022/12/15 09:05:05;;;;;;;52.10;32.58;;;;;;;-0.38;76.76;100095.42;1745495;80;21895;-77
2022/12/15 09:07:33;;;;;;;43.13;25.37;;;;;;;-0.35;76.91;100083.16;1745766;80;20965;-80
2022/12/15 09:09:59;;;;;;;40.10;22.35;;;;;;;-0.28;76.96;100085.08;1740725;80;21499;-78
2022/12/15 09:12:26;;;;;;;29.10;17.73;;;;;;;-0.24;76.92;100076.70;1742774;80;21566;-78
2022/12/15 09:14:52;;;;;;;35.65;20.45;;;;;;;-0.21;76.87;100080.00;1744135;80;21371;-75
2022/12/15 09:17:19;;;;;;;31.80;17.67;;;;;;;-0.19;76.83;100084.71;1745035;81;22491;-79
2022/12/15 09:19:45;;;;;;;34.20;20.48;;;;;;;-0.13;76.81;100077.11;1735105;80;21463;-76
2022/12/15 09:22:11;;;;;;;31.17;17.52;;;;;;;-0.11;76.81;100085.22;1740111;80;21225;-77
2022/12/15 09:24:39;;;;;;;28.75;15.83;;;;;;;-0.06;76.79;100088.49;1738263;80;21025;-78
2022/12/15 09:27:05;;;;;;;27.62;15.03;;;;;;;-0.04;76.69;100081.94;1741490;80;21418;-78
2022/12/15 09:29:32;;;;;;;21.17;13.10;;;;;;;-0.03;76.67;100081.02;1737827;80;22461;-80
2022/12/15 09:31:59;;;;;;;18.52;10.68;;;;;;;-0.01;76.66;100082.64;1742310;80;21044;-77
2022/12/15 09:34:26;;;;;;;16.02;10.35;;;;;;;0.00;76.57;100079.62;1742160;80;21642;-79
2022/12/15 09:36:52;;;;;;;27.52;10.65;;;;;;;0.03;76.59;100080.78;1741598;80;21491;-78
2022/12/15 09:39:19;;;;;;;44.08;13.72;;;;;;;0.05;76.56;100087.21;1729377;82;22113;-76
2022/12/15 09:41:53;;;;;;;17.57;10.85;;;;;;;0.06;76.53;100080.65;1727494;80;22601;-74
2022/12/15 09:44:20;;;;;;;21.90;11.48;;;;;;;0.10;76.52;100082.69;1720675;80;21068;-78
2022/12/15 09:47:04;;;;;;;240.87;28.92;;;;;;;0.12;76.45;100076.97;1734689;80;21321;-80
2022/12/15 09:49:44;;;;;;;47.25;14.05;;;;;;;0.15;76.42;100080.73;1739955;81;21079;-78
2022/12/15 09:52:17;;;;;;;21.52;11.00;;;;;;;0.17;76.34;100078.91;1724225;82;21448;-75
2022/12/15 09:54:45;;;;;;;32.55;23.38;;;;;;;0.19;76.27;100070.59;1729278;81;22900;-75
2022/12/15 09:57:41;;;;;;;24.95;15.05;;;;;;;0.21;76.19;100077.89;1735020;80;21501;-75
2022/12/15 10:00:43;;;;;;;216.10;34.13;;;;;;;0.23;76.02;100073.47;1741019;80;21063;-74
2022/12/15 10:03:43;;;;;;;67.45;22.93;;;;;;;0.25;75.82;100068.59;1733166;80;21097;-80
2022/12/15 10:06:17;;;;;;;573.60;68.55;;;;;;;0.30;75.72;100064.52;1738974;80;21496;-76
2022/12/15 10:08:57;;;;;;;39.63;16.82;;;;;;;0.35;75.45;100059.11;1739993;80;22008;-74
2022/12/15 10:11:50;;;;;;;24.45;14.68;;;;;;;0.38;75.22;100049.88;1732612;80;21079;-75
2022/12/15 10:14:36;;;;;;;39.63;19.42;;;;;;;0.40;74.88;100050.69;1740234;80;21075;-69
2022/12/15 10:17:27;;;;;;;29.85;13.83;;;;;;;0.41;74.55;100048.02;1739640;80;21421;-74
2022/12/15 10:20:08;;;;;;;38.05;18.70;;;;;;;0.43;74.21;100051.39;1736463;81;21056;-79
2022/12/15 10:22:37;;;;;;;34.83;21.40;;;;;;;0.43;73.90;100046.64;1733130;80;22128;-78
2022/12/15 10:25:20;;;;;;;49.23;30.80;;;;;;;0.45;73.71;100037.87;1716198;80;21586;-77
2022/12/15 10:28:21;;;;;;;35.00;21.95;;;;;;;0.46;73.54;100034.81;1736875;80;21052;-78
2022/12/15 10:31:00;;;;;;;34.43;22.87;;;;;;;0.49;73.20;100037.30;1737418;80;21034;-77
2022/12/15 10:33:32;;;;;;;196.20;34.25;;;;;;;0.50;72.85;100037.23;1728250;80;21064;-77
2022/12/15 10:35:59;;;;;;;223.22;33.28;;;;;;;0.53;72.70;100036.24;1731519;80;22470;-78
2022/12/15 10:38:41;;;;;;;47.35;15.32;;;;;;;0.55;72.34;100030.52;1705759;82;21508;-75
2022/12/15 10:41:11;;;;;;;19.00;11.30;;;;;;;0.57;72.08;100033.43;1731881;81;21064;-78
2022/12/15 10:43:40;;;;;;;157.03;24.07;;;;;;;0.63;71.97;100030.19;1726084;80;21061;-76
2022/12/15 10:46:14;;;;;;;48.48;13.78;;;;;;;0.67;71.84;100026.53;1718727;80;21096;-75
2022/12/15 10:48:43;;;;;;;38.67;15.05;;;;;;;0.72;71.64;100031.92;1731394;80;21852;-74
2022/12/15 10:51:20;;;;;;;111.08;21.50;;;;;;;0.75;71.53;100030.94;1734717;80;21738;-74
2022/12/15 10:54:02;;;;;;;30.32;12.85;;;;;;;0.78;71.34;100030.82;1740820;80;21012;-79
2022/12/15 10:56:29;;;;;;;76.10;18.60;;;;;;;0.80;70.94;100032.43;1729181;82;21005;-75
2022/12/15 10:59:00;;;;;;;19.95;12.28;;;;;;;0.84;70.83;100027.92;1740611;80;21020;-79
2022/12/15 11:01:29;;;;;;;18.77;11.65;;;;;;;0.85;70.47;100017.91;1743902;80;21448;-79
2022/12/15 11:03:56;;;;;;;20.85;10.43;;;;;;;0.86;70.25;100019.59;1743205;82;21036;-78
2022/12/15 11:06:28;;;;;;;16.82;9.08;;;;;;;0.86;69.91;100015.70;1729983;81;21496;-79
2022/12/15 11:09:21;;;;;;;12.10;8.50;;;;;;;0.86;69.64;100022.19;1744242;81;21124;-78
2022/12/15 11:14:47;;;;;;;28.75;10.10;;;;;;;0.88;69.39;100023.45;1744045;82;21960;-78
2022/12/15 11:17:17;;;;;;;15.85;9.75;;;;;;;0.89;69.26;100020.78;1743248;81;20986;-78
2022/12/15 11:20:01;;;;;;;12.43;8.85;;;;;;;0.90;69.03;100032.86;1744362;81;20961;-80
2022/12/15 11:22:50;;;;;;;;;;;;;;;0.93;68.96;100032.71;1745316;82;21543;-79
2022/12/15 11:25:44;;;;;;;12.50;8.68;;;;;;;0.94;68.67;100025.75;1745084;81;20196;-78
2022/12/15 11:28:18;;;;;;;15.95;10.53;;;;;;;0.95;68.60;100033.94;1715071;83;21808;-78
2022/12/15 11:30:48;;;;;;;11.73;8.53;;;;;;;0.95;68.64;100038.69;1723791;81;21393;-79
2022/12/15 11:33:15;;;;;;;14.70;9.35;;;;;;;0.96;68.48;100038.22;1743270;82;21447;-78
2022/12/15 11:36:17;;;;;;;10.75;8.23;;;;;;;0.95;68.34;100026.14;1743800;81;21403;-77
2022/12/15 11:38:51;;;;;;;;;;;;;;;0.96;68.12;100027.82;1747201;81;21088;-81
2022/12/15 11:41:44;;;;;;;19.17;12.30;;;;;;;0.93;68.08;100013.21;1757630;81;21824;-80
2022/12/15 11:44:16;;;;;;;15.50;10.20;;;;;;;0.94;68.10;100028.35;1694886;84;21442;-80
2022/12/15 11:47:00;;;;;;;15.10;9.68;;;;;;;0.93;67.96;100024.07;1735305;81;21005;-80
2022/12/15 11:50:04;;;;;;;15.88;9.85;;;;;;;0.92;67.97;100030.19;1722547;81;21001;-80
2022/12/15 11:52:55;;;;;;;18.12;11.08;;;;;;;0.93;68.04;100034.47;1751502;81;20960;-80
2022/12/15 11:55:56;;;;;;;19.98;12.05;;;;;;;0.91;68.02;100037.14;1730365;81;22397;-79
2022/12/15 11:58:29;;;;;;;16.45;10.70;;;;;;;0.90;68.05;100034.16;1735572;81;21515;-78
2022/12/15 12:01:10;;;;;;;21.75;12.78;;;;;;;0.89;68.01;100037.68;1637374;83;21107;-80
2022/12/15 12:04:02;;;;;;;23.95;13.90;;;;;;;0.88;68.11;100027.35;1692684;83;20975;-79
2022/12/15 12:07:27;;;;;;;21.93;14.38;;;;;;;0.89;68.14;100025.14;1715446;83;21037;-77
2022/12/15 12:10:26;;;;;;;103.25;20.62;;;;;;;0.88;68.16;100024.75;1649462;86;21967;-77
2022/12/15 12:13:14;;;;;;;21.60;12.90;;;;;;;0.88;68.21;100024.30;1690000;83;21653;-79
2022/12/15 12:16:08;;;;;;;27.40;14.10;;;;;;;0.89;68.22;100020.78;1713610;83;21001;-77
2022/12/15 12:18:43;;;;;;;30.88;17.17;;;;;;;0.89;68.31;100014.73;1721123;83;21574;-79
2022/12/15 12:21:16;;;;;;;29.60;16.32;;;;;;;0.88;68.38;100004.80;1659747;84;21015;-81
2022/12/15 12:23:57;;;;;;;44.05;18.05;;;;;;;0.89;68.54;100005.64;1717332;83;21857;-75
2022/12/15 12:26:55;;;;;;;33.25;17.42;;;;;;;0.90;68.66;100006.86;1716311;82;20997;-79
2022/12/15 12:29:46;;;;;;;31.48;18.50;;;;;;;0.90;68.66;100000.36;1697107;82;21588;-77
2022/12/15 12:32:22;;;;;;;26.90;16.35;;;;;;;0.90;68.72;99990.42;1721507;83;20989;-78
2022/12/15 12:34:57;;;;;;;40.60;20.60;;;;;;;0.91;68.78;99995.55;1702406;83;21488;-77
2022/12/15 12:37:52;;;;;;;44.95;21.37;;;;;;;0.92;68.93;99984.23;1704729;83;22579;-78
2022/12/15 12:40:56;;;;;;;39.67;18.40;;;;;;;0.94;69.02;99985.45;1665815;84;21025;-75
2022/12/15 12:43:44;;;;;;;38.58;21.27;;;;;;;0.94;69.06;99988.05;1720258;83;20976;-80
2022/12/15 12:46:28;;;;;;;31.77;18.87;;;;;;;0.95;69.27;99991.88;1720132;82;20981;-77
2022/12/15 12:49:09;;;;;;;36.00;18.37;;;;;;;0.96;69.48;100000.06;1701266;82;21044;-78
2022/12/15 12:51:39;;;;;;;31.55;17.12;;;;;;;0.98;69.71;100001.31;1670764;86;22273;-79
2022/12/15 12:54:35;;;;;;;28.73;16.10;;;;;;;0.99;69.89;100003.00;1652353;84;21525;-80
2022/12/15 12:57:16;;;;;;;30.17;17.65;;;;;;;1.00;70.03;100014.63;1692564;83;21024;-77
2022/12/15 12:59:45;;;;;;;31.40;17.73;;;;;;;1.02;70.15;100006.75;1699130;84;21376;-78
2022/12/15 13:02:28;;;;;;;36.65;20.50;;;;;;;1.04;70.26;100002.31;1692095;84;20953;-77
2022/12/15 13:05:03;;;;;;;36.10;19.98;;;;;;;1.03;70.37;99991.07;1707433;82;21895;-77
2022/12/15 13:07:34;;;;;;;32.28;17.60;;;;;;;1.04;70.48;99996.66;1703217;83;20861;-76
2022/12/15 13:10:19;;;;;;;30.82;16.95;;;;;;;1.07;70.50;99995.70;1705454;84;20949;-77
2022/12/15 13:12:59;;;;;;;28.92;17.27;;;;;;;1.08;70.53;100001.28;1682559;85;21067;-80
2022/12/15 13:15:37;;;;;;;29.48;15.78;;;;;;;1.10;70.45;100007.24;1701482;83;21083;-78
2022/12/15 13:18:22;;;;;;;29.37;14.30;;;;;;;1.10;70.46;100004.64;1695412;83;22226;-77
2022/12/15 13:20:54;;;;;;;17.23;11.95;;;;;;;1.13;70.48;100008.39;1671881;85;21599;-78
2022/12/15 13:23:26;;;;;;;15.83;11.33;;;;;;;1.14;70.49;99998.38;1657972;86;21001;-79
2022/12/15 13:26:02;;;;;;;469.77;421.30;;;;;;;1.14;70.49;99999.67;1659754;86;21375;-78
2022/12/15 13:28:42;;;;;;;510.67;461.05;;;;;;;1.13;70.53;100003.19;1697164;82;21043;-78
2022/12/15 13:31:26;;;;;;;551.25;496.18;;;;;;;1.13;70.67;100004.03;1717993;82;21870;-78
2022/12/15 13:34:10;;;;;;;30.40;24.85;;;;;;;1.13;70.72;100004.49;1690730;84;21325;-76
2022/12/15 13:36:43;;;;;;;18.70;14.50;;;;;;;1.11;70.84;100007.63;1721350;82;21001;-79
2022/12/15 13:39:21;;;;;;;15.30;11.60;;;;;;;1.09;70.94;100002.96;1705033;83;21492;-79
2022/12/15 13:41:54;;;;;;;16.42;12.30;;;;;;;1.09;71.04;100006.86;1708667;83;21001;-79
2022/12/15 13:44:35;;;;;;;17.75;13.00;;;;;;;1.08;71.14;100006.48;1709356;84;21855;-79
2022/12/15 13:47:30;;;;;;;20.50;14.05;;;;;;;1.06;71.23;100005.25;1744251;79;20890;-78
2022/12/15 13:50:16;;;;;;;19.85;13.08;;;;;;;1.05;71.38;100009.20;1755093;82;21008;-78
2022/12/15 13:52:50;;;;;;;24.98;15.55;;;;;;;1.05;71.57;100017.84;1753070;82;21518;-77
2022/12/15 13:55:25;;;;;;;19.35;13.60;;;;;;;1.05;71.63;100017.84;1751916;82;21082;-80
2022/12/15 13:58:14;;;;;;;20.55;14.28;;;;;;;1.07;71.76;100034.70;1750160;81;22032;-79
2022/12/15 14:00:54;;;;;;;20.12;13.32;;;;;;;1.09;71.83;100041.52;1747638;82;20928;-80
2022/12/15 14:03:21;;;;;;;17.15;12.25;;;;;;;1.12;71.88;100047.87;1749922;82;21068;-79
2022/12/15 14:05:53;;;;;;;18.00;13.53;;;;;;;1.14;71.95;100051.23;1749982;82;21047;-79
2022/12/15 14:08:21;;;;;;;15.80;12.75;;;;;;;1.15;71.95;100050.78;1749599;81;21433;-79
2022/12/15 14:10:56;;;;;;;19.07;14.53;;;;;;;1.17;72.00;100054.17;1749554;82;21941;-79